TimeHST,TemperatureF,Dew PointF,Humidity,Sea Level PressureIn,VisibilityMPH,Wind Direction,Wind SpeedMPH,Gust SpeedMPH,PrecipitationIn,Events,Conditions,WindDirDegrees,DateUTC
12:53 AM,72.0,63.0,73,30.11,10.0,NE,21.9,-,N/A,,Overcast,40,2013-01-02 10:53:00
1:46 AM,71.6,62.6,73,30.10,10.0,NE,19.6,-,N/A,,Overcast,40,2013-01-02 11:46:00
1:53 AM,72.0,62.1,71,30.10,10.0,NNE,17.3,-,N/A,,Overcast,30,2013-01-02 11:53:00
2:53 AM,72.0,62.1,71,30.08,10.0,NE,17.3,-,N/A,,Overcast,50,2013-01-02 12:53:00
3:53 AM,72.0,63.0,73,30.08,10.0,NE,16.1,-,N/A,,Overcast,50,2013-01-02 13:53:00
4:53 AM,71.6,62.6,73,30.08,10.0,NE,13.8,-,N/A,,Overcast,40,2013-01-02 14:53:00
5:22 AM,69.8,62.6,78,30.08,7.0,NNE,16.1,-,0.01,Rain,Light Rain,30,2013-01-02 15:22:00
5:29 AM,69.8,62.6,78,30.08,10.0,NNE,15.0,-,0.01,,Overcast,30,2013-01-02 15:29:00
5:53 AM,70.0,63.0,78,30.08,10.0,NNE,16.1,-,0.01,,Overcast,30,2013-01-02 15:53:00
6:53 AM,69.1,64.0,84,30.09,10.0,NNE,15.0,-,0.00,,Overcast,20,2013-01-02 16:53:00
7:05 AM,69.8,64.4,83,30.09,10.0,North,10.4,-,N/A,,Overcast,10,2013-01-02 17:05:00
7:09 AM,69.8,64.4,83,30.10,10.0,ENE,12.7,-,N/A,,Overcast,70,2013-01-02 17:09:00
7:48 AM,69.8,66.2,88,30.10,9.0,North,10.4,-,0.05,Rain,Light Rain,10,2013-01-02 17:48:00
7:53 AM,69.1,66.0,90,30.10,10.0,NNE,13.8,-,0.05,,Overcast,20,2013-01-02 17:53:00
8:25 AM,69.8,64.4,83,30.11,10.0,North,9.2,-,N/A,,Overcast,360,2013-01-02 18:25:00
8:36 AM,69.8,66.2,88,30.11,10.0,North,9.2,-,N/A,,Mostly Cloudy,360,2013-01-02 18:36:00
8:53 AM,71.1,66.0,84,30.11,10.0,NNE,15.0,-,N/A,,Mostly Cloudy,30,2013-01-02 18:53:00
9:15 AM,73.4,66.2,78,30.12,10.0,NE,17.3,20.7,N/A,,Overcast,40,2013-01-02 19:15:00
9:53 AM,73.9,64.9,73,30.13,10.0,NNE,17.3,-,N/A,,Overcast,30,2013-01-02 19:53:00
10:53 AM,73.9,66.0,76,30.12,10.0,NE,15.0,-,N/A,,Overcast,40,2013-01-02 20:53:00
11:53 AM,73.9,66.0,76,30.10,10.0,ENE,17.3,-,N/A,,Overcast,60,2013-01-02 21:53:00
12:53 PM,75.0,66.0,73,30.06,10.0,NE,16.1,-,0.00,,Mostly Cloudy,40,2013-01-02 22:53:00
1:44 PM,73.4,64.4,73,30.04,10.0,NE,17.3,-,N/A,,Mostly Cloudy,40,2013-01-02 23:44:00
1:53 PM,73.9,66.0,76,30.03,10.0,NE,16.1,-,N/A,,Overcast,50,2013-01-02 23:53:00
2:53 PM,73.0,64.9,76,30.02,6.0,ENE,18.4,-,0.00,Rain,Light Rain,60,2013-01-03 00:53:00
3:10 PM,71.6,66.2,83,30.03,10.0,NE,16.1,-,0.01,,Overcast,40,2013-01-03 01:10:00
3:53 PM,71.1,66.0,84,30.02,8.0,NE,19.6,-,0.01,Rain,Light Rain,50,2013-01-03 01:53:00
4:00 PM,71.6,66.2,83,30.02,8.0,NE,18.4,-,0.00,Rain,Light Rain,40,2013-01-03 02:00:00
4:13 PM,71.6,66.2,83,30.03,10.0,NE,16.1,-,0.00,,Overcast,40,2013-01-03 02:13:00
4:53 PM,72.0,66.0,81,30.03,10.0,NE,15.0,-,0.00,,Overcast,40,2013-01-03 02:53:00
5:53 PM,72.0,64.9,78,30.04,10.0,NE,17.3,-,N/A,,Overcast,50,2013-01-03 03:53:00
6:53 PM,72.0,64.9,78,30.05,10.0,ENE,15.0,-,N/A,,Overcast,60,2013-01-03 04:53:00
7:53 PM,72.0,64.9,78,30.07,10.0,ENE,15.0,-,N/A,,Overcast,70,2013-01-03 05:53:00
8:53 PM,71.1,64.9,81,30.09,10.0,NE,17.3,-,0.00,,Overcast,40,2013-01-03 06:53:00
9:44 PM,71.6,66.2,83,30.10,4.0,NE,17.3,23.0,0.01,Rain,Heavy Rain,50,2013-01-03 07:44:00
9:53 PM,71.1,66.0,84,30.09,6.0,NNE,15.0,-,0.04,Rain,Light Rain,30,2013-01-03 07:53:00
10:36 PM,71.6,64.4,78,30.10,10.0,NE,17.3,-,0.00,,Overcast,50,2013-01-03 08:36:00
10:53 PM,71.1,66.0,84,30.09,10.0,ENE,19.6,24.2,0.00,,Overcast,70,2013-01-03 08:53:00
11:24 PM,69.8,64.4,83,30.10,10.0,NE,16.1,-,0.00,,Overcast,40,2013-01-03 09:24:00
11:53 PM,70.0,66.0,87,30.09,5.0,NE,13.8,-,0.00,Rain,Light Rain,50,2013-01-03 09:53:00